Ar Rutbah (Kv), Iraq

9:12 AM AST on July 02, 2015 (GMT +0300)
Ar Rutbah (KV) | | Change Station
CLOSE
Current Station
Airport
Location: Ar Rutbah (KV),
Elevation: 2510 ft
Nearby Weather Stations

Elev 2510 ft 33.05 °N, 40.32 °E | Updated 17 minutes ago

Clear
Clear
86 °F
Feels Like 86 °F
N
7
Wind Variable Wind from Variable

Today
High -- | Low -- °F
--% Chance of Precip.
Yesterday
High -- | Low -- °F
Precip. -- in
5:13 AM 7:31 PM
Full, 100% visible
Pressure 29.63 in
Visibility 6.2 miles
Clouds Clear
Dew Point 33 °F
Humidity 15%
Rainfall 0.00 in
Snow Depth Not available.
UV 6 out of 12
Pollen Not available.
Air Quality Not available.
Flu Activity Not available.
METAR KQMH 020555Z AUTO VRB06KT 9999 CLR 30/01 A3003 RMK AO2 SLP034 T03020005 10260 20195 57002 $

More Conditions Fewer Conditions

Pressure 29.63 in
Visibility 6.2 miles
Clouds Clear
Dew Point 33 °F
Humidity 15%
Rainfall 0.00 in
Snow Depth Not available.
UV 6 out of 12
Pollen Not available.
Air Quality Not available.
Flu Activity Not available.
METAR KQMH 020555Z AUTO VRB06KT 9999 CLR 30/01 A3003 RMK AO2 SLP034 T03020005 10260 20195 57002 $

More Conditions Fewer Conditions

10-Day Weather Forecast

×

Almanac

Astronomy

Jul. 02, 2015 Rise Set
Actual Time
Civil Twilight
Nautical Twilight
Astronomical Twilight
Moon
Length of Visible Light
Length of Day
Tomorrow will be .
, % of the Moon is Illuminated

Today's Extremes

Country Highs Country Lows

Community

WunderPhotos

Upload Photos

1,834,422 photos uploaded!

WunderBlogs® & News

Nearby

Air Quality

  Air Quality AQ Index Pollutant
Not available.

Snow Depth

Station Depth Elevation

Earthquake Activity

City Distance Mag. Time & Date
Minimum magnitude displayed is 2.5.

Coastal Water Temperatures

Place Temperature

Stations

Nearby Weather Stations

Station Location Temp. Windchill Dew Point Humidity Wind Precip. Elev Updated Type